Time;durP1;ratioP1;P1;durP2;ratioP2;P2;SDS_P1;SDS_P2;PMS_P1;PMS_P2;Temp;Humidity;BMP_temperature;BMP_pressure;BME280_temperature;BME280_humidity;BME280_pressure;Samples;Min_cycle;Max_cycle;Signal;HPM_P1;HPM_P2
2022/05/11 00:01:18;;;;;;;5.10;4.53;;;22.80;35.40;;;;;;5055323;28;20239;-33
2022/05/11 00:03:43;;;;;;;5.07;4.57;;;22.80;35.30;;;;;;5055244;28;20185;-33
2022/05/11 00:06:09;;;;;;;4.80;4.40;;;22.80;35.30;;;;;;5055294;28;20173;-33
2022/05/11 00:08:35;;;;;;;5.87;4.47;;;22.80;35.20;;;;;;5055191;28;20180;-33
2022/05/11 00:11:04;;;;;;;4.93;4.53;;;22.80;34.90;;;;;;5054958;28;20169;-33
2022/05/11 00:13:30;;;;;;;4.10;3.70;;;22.90;34.70;;;;;;5036959;28;20821;-32
2022/05/11 00:15:56;;;;;;;4.90;3.90;;;22.90;34.80;;;;;;5037395;28;20923;-33
2022/05/11 00:18:22;;;;;;;6.30;4.20;;;22.90;34.90;;;;;;5055551;28;20408;-33
2022/05/11 00:20:48;;;;;;;5.57;4.30;;;22.90;34.70;;;;;;5036996;28;20239;-33
2022/05/11 00:23:13;;;;;;;4.53;4.10;;;22.90;34.60;;;;;;5054944;28;20513;-33
2022/05/11 00:25:39;;;;;;;5.90;4.37;;;22.90;34.70;;;;;;5054964;28;20169;-33
2022/05/11 00:28:05;;;;;;;4.40;4.00;;;22.90;34.60;;;;;;5054768;28;20184;-33
2022/05/11 00:30:32;;;;;;;6.90;4.80;;;22.80;34.60;;;;;;5054653;28;20442;-33
2022/05/11 00:33:00;;;;;;;5.70;4.20;;;22.80;34.60;;;;;;5054520;28;20291;-33
2022/05/11 00:35:29;;;;;;;8.27;6.70;;;22.80;34.90;;;;;;5054996;28;20433;-33
2022/05/11 00:37:55;;;;;;;9.37;7.57;;;22.80;34.90;;;;;;5054631;28;20415;-33
2022/05/11 00:40:23;;;;;;;12.10;8.30;;;22.80;35.00;;;;;;5054524;28;20400;-33
2022/05/11 00:42:49;;;;;;;7.73;6.80;;;22.70;35.00;;;;;;5054081;28;20419;-33
2022/05/11 00:45:15;;;;;;;10.10;7.60;;;22.70;35.20;;;;;;5054461;28;20415;-33
2022/05/11 00:47:46;;;;;;;9.47;8.03;;;22.70;35.20;;;;;;5054520;28;20411;-33
2022/05/11 00:50:28;;;;;;;12.47;9.13;;;22.60;35.10;;;;;;5054640;28;20494;-33
2022/05/11 00:53:00;;;;;;;10.37;7.43;;;22.60;35.50;;;;;;5054311;28;20979;-33
2022/05/11 00:55:31;;;;;;;12.57;9.13;;;22.50;35.40;;;;;;5054435;28;20404;-33
2022/05/11 00:58:15;;;;;;;9.50;7.60;;;22.40;35.30;;;;;;5054369;28;20392;-33
2022/05/11 01:00:43;;;;;;;9.20;7.07;;;22.30;35.30;;;;;;5054099;28;20454;-33
2022/05/11 01:03:43;;;;;;;9.23;6.07;;;22.20;35.60;;;;;;5054148;28;20928;-33
2022/05/11 01:06:11;;;;;;;7.70;5.73;;;22.20;35.40;;;;;;5054007;28;20412;-33
2022/05/11 01:08:38;;;;;;;7.83;6.17;;;22.10;35.70;;;;;;5054171;28;20408;-33
2022/05/11 01:11:06;;;;;;;6.57;5.97;;;22.00;35.80;;;;;;5053883;28;20419;-33
2022/05/11 01:13:33;;;;;;;6.03;4.23;;;22.00;35.80;;;;;;5053883;28;20513;-33
2022/05/11 01:16:00;;;;;;;6.37;5.00;;;21.90;35.80;;;;;;5054073;28;20400;-33
2022/05/11 01:18:28;;;;;;;6.53;5.57;;;21.90;35.80;;;;;;5053992;28;20416;-32
2022/05/11 01:20:54;;;;;;;5.80;4.93;;;21.80;36.10;;;;;;5053666;28;20404;-33
2022/05/11 01:23:27;;;;;;;6.00;5.37;;;21.80;35.80;;;;;;5053843;28;20480;-33
2022/05/11 01:25:54;;;;;;;5.50;4.40;;;21.80;35.90;;;;;;5054078;28;20177;-33
2022/05/11 01:28:20;;;;;;;5.73;4.47;;;21.80;35.90;;;;;;5053820;28;20895;-33
2022/05/11 01:30:52;;;;;;;6.60;5.63;;;21.80;35.70;;;;;;5035644;28;20491;-33
2022/05/11 01:33:24;;;;;;;5.40;4.90;;;21.80;36.00;;;;;;5053374;28;20455;-33
2022/05/11 01:36:10;;;;;;;5.83;4.77;;;21.80;35.70;;;;;;5053649;28;20418;-33
2022/05/11 01:38:47;;;;;;;7.10;4.70;;;21.80;35.70;;;;;;5053547;28;20415;-33
2022/05/11 01:41:20;;;;;;;5.33;4.83;;;21.70;35.80;;;;;;5053385;28;20506;-33
2022/05/11 01:43:46;;;;;;;7.73;4.47;;;21.60;35.80;;;;;;5053291;28;20462;-32
2022/05/11 01:46:13;;;;;;;5.67;4.77;;;21.60;35.90;;;;;;5053676;28;20885;-32
2022/05/11 01:48:39;;;;;;;5.80;4.77;;;21.60;35.80;;;;;;5053478;28;20203;-33
2022/05/11 01:51:05;;;;;;;5.37;4.87;;;21.60;35.90;;;;;;5053255;28;20435;-32
2022/05/11 01:53:31;;;;;;;4.13;3.60;;;21.60;36.00;;;;;;5052393;28;20208;-33
2022/05/11 01:55:57;;;;;;;6.37;4.37;;;21.60;35.90;;;;;;5053329;28;20395;-33
2022/05/11 01:58:24;;;;;;;6.03;5.03;;;21.60;36.00;;;;;;5053080;28;20177;-33
2022/05/11 02:00:49;;;;;;;5.90;4.10;;;21.50;36.40;;;;;;5052896;28;20750;-32
2022/05/11 02:03:18;;;;;;;5.13;4.03;;;21.50;36.20;;;;;;5053377;28;20435;-33
2022/05/11 02:08:30;;;;;;;4.83;4.33;;;21.50;36.80;;;;;;5053318;28;20764;-32
2022/05/11 02:10:56;;;;;;;6.07;4.33;;;21.40;36.00;;;;;;5034837;28;20784;-33
2022/05/11 02:13:22;;;;;;;4.53;4.07;;;21.40;36.10;;;;;;5052702;28;20469;-33
2022/05/11 02:15:50;;;;;;;5.30;4.27;;;21.40;36.10;;;;;;5052905;28;20792;-33
2022/05/11 02:18:16;;;;;;;5.37;4.87;;;21.40;36.50;;;;;;5053425;28;20404;-33
2022/05/11 02:20:42;;;;;;;7.30;5.07;;;21.40;36.20;;;;;;5052573;28;20396;-33
2022/05/11 02:23:08;;;;;;;5.00;4.57;;;21.30;36.20;;;;;;5052597;28;20511;-32
2022/05/11 02:25:34;;;;;;;8.10;5.03;;;21.30;36.20;;;;;;5052747;28;20197;-33
2022/05/11 02:28:00;;;;;;;3.90;3.50;;;21.30;36.10;;;;;;5052645;28;20408;-32
2022/05/11 02:30:29;;;;;;;5.50;4.20;;;21.30;36.20;;;;;;5052337;28;20404;-32
2022/05/11 02:32:55;;;;;;;4.63;3.70;;;21.30;36.20;;;;;;5052482;28;20193;-32
2022/05/11 02:35:23;;;;;;;6.87;4.90;;;21.20;36.10;;;;;;5052540;28;20495;-32
2022/05/11 02:37:51;;;;;;;10.70;4.90;;;21.20;36.70;;;;;;5052305;28;20408;-33
2022/05/11 02:40:21;;;;;;;4.47;4.07;;;21.20;36.50;;;;;;5052419;28;20534;-33
2022/05/11 02:42:47;;;;;;;8.03;4.87;;;21.10;36.80;;;;;;5052431;28;20463;-33
2022/05/11 02:45:14;;;;;;;7.00;4.77;;;21.10;36.70;;;;;;5052354;28;20403;-32
2022/05/11 02:47:41;;;;;;;4.30;3.90;;;21.20;36.40;;;;;;5052393;28;20184;-33
2022/05/11 02:50:09;;;;;;;4.67;4.17;;;21.20;36.40;;;;;;5034293;28;20919;-33
2022/05/11 02:52:35;;;;;;;5.88;4.65;;;21.20;36.30;;;;;;5051885;28;20451;-33
2022/05/11 02:55:01;;;;;;;5.47;4.70;;;21.20;36.80;;;;;;5052275;28;20649;-33
2022/05/11 02:57:27;;;;;;;6.67;4.13;;;21.30;36.30;;;;;;5052385;28;20201;-33
2022/05/11 02:59:53;;;;;;;4.97;4.40;;;21.30;36.30;;;;;;5052196;28;20442;-32
2022/05/11 03:02:20;;;;;;;6.27;4.97;;;21.30;36.40;;;;;;5051896;28;20411;-33
2022/05/11 03:04:46;;;;;;;5.20;4.50;;;21.30;37.00;;;;;;5051840;28;20200;-33
2022/05/11 03:07:12;;;;;;;5.37;3.90;;;21.30;36.30;;;;;;5052881;28;20408;-33
2022/05/11 03:09:38;;;;;;;4.37;3.97;;;21.30;36.40;;;;;;5052711;28;20404;-33
2022/05/11 03:12:05;;;;;;;5.27;4.47;;;21.30;36.20;;;;;;5052705;28;20246;-33
2022/05/11 03:14:31;;;;;;;5.50;4.90;;;21.40;36.20;;;;;;5052489;28;20824;-33
2022/05/11 03:16:57;;;;;;;5.10;3.80;;;21.40;36.40;;;;;;5052052;28;20404;-32
2022/05/11 03:19:22;;;;;;;7.03;4.73;;;21.40;36.20;;;;;;5051847;28;20165;-33
2022/05/11 03:21:48;;;;;;;5.47;4.97;;;21.40;36.20;;;;;;5051956;28;20465;-32
2022/05/11 03:24:14;;;;;;;4.40;3.83;;;21.40;36.20;;;;;;5051842;28;20220;-33
2022/05/11 03:26:40;;;;;;;4.10;3.70;;;21.40;36.10;;;;;;5051906;28;20542;-33
2022/05/11 03:29:06;;;;;;;6.27;4.67;;;21.40;36.20;;;;;;5052063;28;20189;-33
2022/05/11 03:31:33;;;;;;;6.67;4.17;;;21.40;36.40;;;;;;5051622;28;20426;-33
2022/05/11 03:36:43;;;;;;;5.00;4.10;;;21.50;36.30;;;;;;5051826;28;20461;-32
2022/05/11 03:39:10;;;;;;;5.57;5.00;;;21.50;36.30;;;;;;5052105;28;20892;-33
2022/05/11 03:41:36;;;;;;;6.97;4.80;;;21.40;36.20;;;;;;5051536;28;20563;-33
2022/05/11 03:44:02;;;;;;;5.50;4.27;;;21.50;36.30;;;;;;5051741;28;20423;-33
2022/05/11 03:46:28;;;;;;;5.20;4.80;;;21.50;36.60;;;;;;5051646;28;20415;-33
2022/05/11 03:48:54;;;;;;;6.80;4.43;;;21.50;36.40;;;;;;5051744;28;20550;-33
2022/05/11 03:51:20;;;;;;;7.97;4.17;;;21.50;36.50;;;;;;5051682;28;20580;-33
2022/05/11 03:53:45;;;;;;;5.03;4.10;;;21.50;36.60;;;;;;5051467;28;20216;-32
2022/05/11 03:56:11;;;;;;;6.20;4.90;;;21.50;36.70;;;;;;5051705;28;20754;-32
2022/05/11 03:58:37;;;;;;;6.73;4.80;;;21.60;37.30;;;;;;5051531;28;20538;-33
2022/05/11 04:01:02;;;;;;;4.43;3.80;;;21.50;36.70;;;;;;5052003;28;20180;-33
2022/05/11 04:03:28;;;;;;;5.83;4.40;;;21.60;36.90;;;;;;5051901;28;20216;-33
2022/05/11 04:05:54;;;;;;;6.93;4.40;;;21.60;36.90;;;;;;5051660;28;20173;-33
2022/05/11 04:08:19;;;;;;;5.60;4.33;;;21.60;37.10;;;;;;5051496;28;20256;-33
2022/05/11 04:10:45;;;;;;;4.10;3.70;;;21.60;36.90;;;;;;5051318;28;20192;-33
2022/05/11 04:13:11;;;;;;;3.63;3.30;;;21.60;36.80;;;;;;5051213;28;20263;-33
2022/05/11 04:15:36;;;;;;;5.53;4.90;;;21.60;36.80;;;;;;5051433;28;20223;-33
2022/05/11 04:18:03;;;;;;;4.83;4.43;;;21.60;36.80;;;;;;5054559;28;20280;-33
2022/05/11 04:20:28;;;;;;;6.23;5.60;;;21.70;36.90;;;;;;5055080;28;20183;-33
2022/05/11 04:22:55;;;;;;;6.67;4.73;;;21.70;36.80;;;;;;5055140;28;20514;-33
2022/05/11 04:25:21;;;;;;;4.47;4.07;;;21.80;36.70;;;;;;5055001;28;20412;-33
2022/05/11 04:27:48;;;;;;;6.20;5.30;;;21.80;36.80;;;;;;5055405;28;20416;-33
2022/05/11 04:30:16;;;;;;;5.67;4.47;;;21.80;36.70;;;;;;5054742;28;20407;-33
2022/05/11 04:32:42;;;;;;;5.20;4.57;;;21.90;36.70;;;;;;5054469;28;20459;-33
2022/05/11 04:35:09;;;;;;;5.40;4.33;;;21.90;36.70;;;;;;5054753;28;20549;-33
2022/05/11 04:37:35;;;;;;;6.13;5.40;;;22.00;36.70;;;;;;5054767;28;20400;-33
2022/05/11 04:40:01;;;;;;;5.47;4.97;;;22.00;36.70;;;;;;5054680;28;20939;-33
2022/05/11 04:42:27;;;;;;;7.60;4.50;;;22.10;36.60;;;;;;5054382;28;20904;-33
2022/05/11 04:44:53;;;;;;;7.43;4.40;;;22.10;36.60;;;;;;5054466;28;20435;-33
2022/05/11 04:47:19;;;;;;;7.37;4.30;;;22.10;36.80;;;;;;5054567;28;20177;-32
2022/05/11 04:49:45;;;;;;;5.30;4.57;;;22.10;36.70;;;;;;5054696;28;20407;-33
2022/05/11 04:52:14;;;;;;;4.43;4.03;;;22.20;36.60;;;;;;5054291;28;20479;-33
2022/05/11 04:54:48;;;;;;;5.53;5.03;;;22.20;36.70;;;;;;5036469;28;20443;-33
2022/05/11 04:57:14;;;;;;;4.67;4.20;;;22.30;36.80;;;;;;5054546;28;20427;-32
2022/05/11 04:59:40;;;;;;;4.90;3.90;;;22.30;36.80;;;;;;5054271;28;20423;-33
2022/05/11 05:02:07;;;;;;;3.90;3.53;;;22.30;36.90;;;;;;5054277;28;20454;-33
2022/05/11 05:04:33;;;;;;;6.73;4.70;;;22.40;37.50;;;;;;5054246;28;20834;-33
2022/05/11 05:06:59;;;;;;;5.73;4.77;;;22.40;36.80;;;;;;5054364;28;20428;-33
2022/05/11 05:09:25;;;;;;;5.50;5.00;;;22.50;37.10;;;;;;5036716;28;20411;-32
2022/05/11 05:11:51;;;;;;;5.17;4.63;;;22.50;36.80;;;;;;5053883;28;20408;-33
2022/05/11 05:14:17;;;;;;;5.77;4.90;;;22.60;36.80;;;;;;5053742;28;20502;-33
2022/05/11 05:16:43;;;;;;;5.03;3.40;;;22.60;36.70;;;;;;5054046;28;20400;-33
2022/05/11 05:19:09;;;;;;;4.63;4.03;;;22.70;36.80;;;;;;5053937;28;20166;-33
2022/05/11 05:21:35;;;;;;;5.20;4.10;;;22.70;36.60;;;;;;5053733;28;20404;-33
2022/05/11 05:24:01;;;;;;;6.00;4.93;;;22.80;36.60;;;;;;5053822;28;20939;-32
2022/05/11 05:26:28;;;;;;;4.67;4.00;;;22.90;36.60;;;;;;5053897;28;20180;-33
2022/05/11 05:31:38;;;;;;;5.70;4.43;;;23.10;36.60;;;;;;5053726;28;20906;-33
2022/05/11 05:34:04;;;;;;;7.70;6.20;;;23.20;36.40;;;;;;5053713;28;20464;-33
2022/05/11 05:36:33;;;;;;;4.97;4.47;;;23.30;36.30;;;;;;5053693;28;20449;-33
2022/05/11 05:38:59;;;;;;;8.10;4.83;;;23.50;36.30;;;;;;5053602;28;20432;-33
2022/05/11 05:41:27;;;;;;;5.00;4.50;;;23.60;36.20;;;;;;5053650;28;20467;-33
2022/05/11 05:43:53;;;;;;;4.80;4.10;;;23.70;36.20;;;;;;5053611;28;20912;-33
2022/05/11 05:46:20;;;;;;;4.83;4.33;;;23.80;35.90;;;;;;5053418;28;20415;-33
2022/05/11 05:48:46;;;;;;;5.33;3.90;;;23.90;35.70;;;;;;5053625;28;20413;-33
2022/05/11 05:51:14;;;;;;;5.13;4.60;;;23.90;35.60;;;;;;5053094;28;20687;-33
2022/05/11 05:53:41;;;;;;;7.43;3.93;;;24.00;35.60;;;;;;5054131;28;20505;-33
2022/05/11 05:56:10;;;;;;;4.37;3.90;;;24.10;35.70;;;;;;5053605;28;20412;-33
2022/05/11 05:58:37;;;;;;;7.80;4.93;;;24.20;35.50;;;;;;5053368;28;20404;-33
2022/05/11 06:01:04;;;;;;;4.83;4.33;;;24.30;35.70;;;;;;5053001;28;20888;-33
2022/05/11 06:03:32;;;;;;;8.20;4.10;;;24.30;35.80;;;;;;5053655;28;20795;-33
2022/05/11 06:05:58;;;;;;;6.40;4.30;;;24.50;36.20;;;;;;5053001;28;20408;-33
2022/05/11 06:08:24;;;;;;;4.83;4.00;;;24.60;35.50;;;;;;5053071;28;20434;-33
2022/05/11 06:10:53;;;;;;;5.50;3.90;;;24.70;35.40;;;;;;5052844;28;20407;-33
2022/05/11 06:13:22;;;;;;;4.10;3.70;;;24.90;35.40;;;;;;5053183;28;20490;-33
2022/05/11 06:15:53;;;;;;;6.50;4.73;;;25.00;35.00;;;;;;5052920;28;20880;-33
2022/05/11 06:18:19;;;;;;;5.27;4.70;;;25.20;35.10;;;;;;5052935;28;20407;-33
2022/05/11 06:20:45;;;;;;;5.73;4.50;;;25.30;35.00;;;;;;5052851;28;20412;-33
2022/05/11 06:23:11;;;;;;;6.10;4.43;;;25.50;33.20;;;;;;5053002;28;20737;-33
2022/05/11 06:25:38;;;;;;;6.40;3.90;;;25.50;33.50;;;;;;5052768;28;20227;-33
2022/05/11 06:28:06;;;;;;;5.07;4.50;;;25.60;33.70;;;;;;5052785;28;20427;-33
2022/05/11 06:30:33;;;;;;;4.57;3.77;;;25.80;32.60;;;;;;5052329;28;20411;-33
2022/05/11 06:33:00;;;;;;;4.40;3.60;;;25.90;31.30;;;;;;5052473;28;20459;-33
2022/05/11 06:35:27;;;;;;;5.07;3.50;;;25.90;32.40;;;;;;5052400;28;20407;-33
2022/05/11 06:37:54;;;;;;;5.20;3.50;;;26.00;32.80;;;;;;5052544;28;20412;-33
2022/05/11 06:40:21;;;;;;;3.63;3.33;;;26.00;32.20;;;;;;5052086;28;20892;-33
2022/05/11 06:42:50;;;;;;;6.23;3.33;;;26.10;32.00;;;;;;5052315;28;20814;-33
2022/05/11 06:45:16;;;;;;;3.83;3.20;;;26.00;31.60;;;;;;5052801;28;20801;-33
2022/05/11 06:47:42;;;;;;;3.20;2.90;;;26.00;32.30;;;;;;5052357;28;20404;-33
2022/05/11 06:50:09;;;;;;;6.17;4.20;;;26.00;32.20;;;;;;5052168;28;20426;-33
2022/05/11 06:52:35;;;;;;;5.07;3.10;;;26.10;31.90;;;;;;5052431;28;20169;-33
2022/05/11 07:00:32;;;;;;;4.50;3.40;;;26.20;31.90;;;;;;5052025;28;20400;-33
2022/05/11 07:02:59;;;;;;;4.90;3.60;;;26.20;31.80;;;;;;5034198;28;20502;-34
2022/05/11 07:05:24;;;;;;;5.73;3.77;;;26.30;32.00;;;;;;5052125;28;20412;-33
2022/05/11 07:07:52;;;;;;;4.97;3.80;;;26.40;31.80;;;;;;5052120;28;20949;-33
2022/05/11 07:10:17;;;;;;;5.93;4.10;;;26.50;32.20;;;;;;5052005;28;20171;-33
2022/05/11 07:12:46;;;;;;;5.07;3.53;;;26.50;32.10;;;;;;5051795;28;20550;-33
2022/05/11 07:15:13;;;;;;;4.93;2.93;;;26.60;31.60;;;;;;5051941;28;20223;-33
2022/05/11 07:17:42;;;;;;;4.67;3.37;;;26.60;31.50;;;;;;5052386;28;20407;-34
2022/05/11 07:20:14;;;;;;;4.20;3.80;;;26.70;31.50;;;;;;5051983;28;20914;-33
2022/05/11 07:22:39;;;;;;;4.27;3.33;;;26.70;31.40;;;;;;5051866;28;20410;-33
2022/05/11 07:25:12;;;;;;;5.00;3.57;;;26.80;32.00;;;;;;5051894;28;20413;-33
2022/05/11 07:27:38;;;;;;;4.10;2.83;;;26.90;31.30;;;;;;5052185;28;20176;-33
2022/05/11 07:30:07;;;;;;;3.60;2.40;;;27.00;30.80;;;;;;5051815;28;20407;-34
2022/05/11 07:32:33;;;;;;;4.73;3.00;;;27.10;31.30;;;;;;5051810;28;20407;-33
2022/05/11 07:34:59;;;;;;;4.03;3.50;;;27.10;31.40;;;;;;5051969;28;20533;-33
2022/05/11 07:37:24;;;;;;;3.53;3.23;;;27.20;31.30;;;;;;5052050;28;20465;-33
2022/05/11 07:39:51;;;;;;;4.87;3.53;;;27.30;30.80;;;;;;5051678;28;20176;-33
2022/05/11 07:42:17;;;;;;;3.40;2.60;;;27.40;30.80;;;;;;5051869;28;20457;-33
2022/05/11 07:44:43;;;;;;;3.53;3.10;;;27.40;30.90;;;;;;5051643;28;20434;-33
2022/05/11 07:47:10;;;;;;;3.40;3.00;;;27.50;30.10;;;;;;5051880;28;20544;-33
2022/05/11 07:49:37;;;;;;;3.20;2.60;;;27.60;30.50;;;;;;5051551;28;20930;-33
2022/05/11 07:52:04;;;;;;;4.30;3.03;;;27.70;30.70;;;;;;5053246;28;20406;-33
2022/05/11 07:54:30;;;;;;;3.43;2.90;;;27.80;30.40;;;;;;5055298;28;20503;-33
2022/05/11 07:59:56;;;;;;;5.57;3.43;;;28.00;29.90;;;;;;5055979;28;20402;-34
2022/05/11 08:02:30;;;;;;;4.23;3.00;;;28.10;29.90;;;;;;5055380;28;20411;-33
2022/05/11 08:04:59;;;;;;;4.53;2.90;;;28.10;30.00;;;;;;5055490;28;20429;-33
2022/05/11 08:07:27;;;;;;;3.57;2.73;;;28.20;30.60;;;;;;5055364;28;20438;-34
2022/05/11 08:09:57;;;;;;;4.17;3.13;;;28.40;30.30;;;;;;5055353;28;20412;-34
2022/05/11 08:12:23;;;;;;;3.40;2.93;;;28.70;29.90;;;;;;5054940;28;20423;-34
2022/05/11 08:14:49;;;;;;;5.73;3.20;;;28.90;29.10;;;;;;5055484;28;20431;-34
2022/05/11 08:17:14;;;;;;;3.90;3.17;;;29.00;29.00;;;;;;5055634;28;20173;-34
2022/05/11 08:19:42;;;;;;;5.13;4.63;;;29.20;28.60;;;;;;5055947;28;20907;-34
2022/05/11 08:22:08;;;;;;;3.63;3.00;;;29.30;28.60;;;;;;5055707;28;20165;-34
2022/05/11 08:24:33;;;;;;;5.50;2.90;;;29.40;28.20;;;;;;5055888;28;20793;-34
2022/05/11 08:26:59;;;;;;;3.40;2.83;;;29.40;26.60;;;;;;5055380;28;20177;-34
2022/05/11 08:34:54;;;;;;;6.13;2.87;;;29.50;26.60;;;;;;5054969;28;20462;-34
2022/05/11 08:37:20;;;;;;;3.87;2.67;;;29.40;26.80;;;;;;5054851;28;20400;-34
2022/05/11 08:39:48;;;;;;;5.63;2.77;;;29.50;26.80;;;;;;5055029;28;20775;-34
2022/05/11 08:42:14;;;;;;;3.60;3.10;;;29.50;25.30;;;;;;5054836;28;20572;-34
2022/05/11 08:44:47;;;;;;;8.30;3.30;;;29.60;26.60;;;;;;5054610;28;20415;-34
2022/05/11 08:47:44;;;;;;;3.10;2.47;;;29.70;26.00;;;;;;5054836;28;20887;-34
2022/05/11 08:50:12;;;;;;;3.60;2.73;;;29.90;25.30;;;;;;5054727;28;20399;-34
2022/05/11 08:52:50;;;;;;;3.47;2.70;;;30.00;25.00;;;;;;5054306;28;20948;-34
2022/05/11 08:55:48;;;;;;;3.77;2.73;;;30.10;24.70;;;;;;5054406;28;20408;-34
2022/05/11 08:58:28;;;;;;;6.27;3.77;;;30.10;25.40;;;;;;5054552;28;20396;-34
2022/05/11 09:00:56;;;;;;;3.10;2.60;;;30.20;25.00;;;;;;5054277;28;20431;-34
2022/05/11 09:03:33;;;;;;;2.70;2.27;;;30.30;25.20;;;;;;5053895;28;20935;-34
2022/05/11 09:06:01;;;;;;;8.47;2.90;;;30.20;24.80;;;;;;5054489;28;20449;-34
2022/05/11 09:08:36;;;;;;;4.00;2.37;;;30.30;24.70;;;;;;5054250;28;20457;-34
2022/05/11 09:11:04;;;;;;;3.73;2.70;;;30.40;24.70;;;;;;5053981;28;20778;-34
2022/05/11 09:13:29;;;;;;;3.93;3.03;;;30.50;25.00;;;;;;5053778;28;20468;-34
2022/05/11 09:15:58;;;;;;;3.77;2.60;;;30.70;25.80;;;;;;5054110;28;20406;-34
2022/05/11 09:18:34;;;;;;;2.80;2.00;;;30.70;22.60;;;;;;5053989;28;20197;-34
2022/05/11 09:21:10;;;;;;;2.70;2.23;;;30.70;23.90;;;;;;5053998;28;20455;-34
2022/05/11 09:23:39;;;;;;;2.90;2.43;;;30.70;23.30;;;;;;5053974;28;20516;-34
2022/05/11 09:26:16;;;;;;;3.00;2.17;;;30.70;23.10;;;;;;5053787;28;20440;-34
2022/05/11 09:28:47;;;;;;;3.40;2.67;;;30.80;23.10;;;;;;5054017;28;20896;-34
2022/05/11 09:31:25;;;;;;;3.40;3.00;;;30.80;23.10;;;;;;5053678;28;20420;-34
2022/05/11 09:33:59;;;;;;;3.50;2.20;;;30.90;23.30;;;;;;5053764;28;20462;-34
2022/05/11 09:36:56;;;;;;;4.77;2.83;;;30.90;23.20;;;;;;5053636;28;20410;-34
2022/05/11 09:39:23;;;;;;;3.70;2.80;;;30.90;22.80;;;;;;5053177;28;20750;-34
2022/05/11 09:41:51;;;;;;;2.70;2.23;;;30.90;23.50;;;;;;5053471;28;20399;-34
2022/05/11 09:44:27;;;;;;;5.37;3.30;;;30.90;23.40;;;;;;5053539;28;20433;-34
2022/05/11 09:46:54;;;;;;;3.40;2.50;;;31.00;24.20;;;;;;5053458;28;20449;-34
2022/05/11 09:49:20;;;;;;;3.70;2.53;;;31.00;24.00;;;;;;5053490;28;20444;-34
2022/05/11 09:51:45;;;;;;;2.73;2.30;;;31.20;23.70;;;;;;5053270;28;20442;-34
2022/05/11 09:54:38;;;;;;;4.77;2.60;;;31.40;24.10;;;;;;5053102;28;20200;-34
2022/05/11 09:57:11;;;;;;;3.93;2.93;;;31.50;23.60;;;;;;5053720;28;20705;-34
2022/05/11 09:59:41;;;;;;;3.03;2.73;;;31.60;22.80;;;;;;5053181;28;20399;-35
2022/05/11 10:02:32;;;;;;;4.53;2.90;;;31.60;23.20;;;;;;5053118;28;20916;-34
2022/05/11 10:05:20;;;;;;;3.97;3.10;;;31.80;22.90;;;;;;5053286;28;20431;-34
2022/05/11 10:07:52;;;;;;;4.27;2.63;;;31.80;22.60;;;;;;5053040;28;20415;-34
2022/05/11 10:10:48;;;;;;;3.10;2.50;;;31.80;22.30;;;;;;5053378;28;20480;-34
2022/05/11 10:13:30;;;;;;;3.70;2.90;;;31.70;20.90;;;;;;5053051;28;20467;-34
2022/05/11 10:22:15;;;;;;;3.07;2.60;;;32.10;22.80;;;;;;5052803;28;20394;-34
2022/05/11 10:24:54;;;;;;;3.40;2.60;;;32.20;22.60;;;;;;5052661;28;20427;-34
2022/05/11 10:27:44;;;;;;;3.33;2.37;;;32.40;22.60;;;;;;5052732;28;20887;-34
2022/05/11 10:30:16;;;;;;;3.10;2.43;;;32.50;22.60;;;;;;5052685;28;20411;-34
2022/05/11 10:33:10;;;;;;;3.90;2.50;;;32.70;21.60;;;;;;5052338;28;20404;-34
2022/05/11 10:36:13;;;;;;;3.27;2.80;;;32.60;22.00;;;;;;5052577;28;20908;-34
2022/05/11 10:39:00;;;;;;;4.73;2.90;;;32.70;22.20;;;;;;5052480;28;20396;-34
2022/05/11 10:41:32;;;;;;;3.77;2.93;;;32.90;21.30;;;;;;5056039;28;20426;-35
2022/05/11 10:44:26;;;;;;;5.57;2.70;;;33.00;21.90;;;;;;5072556;28;20431;-34
2022/05/11 10:47:24;;;;;;;2.73;2.43;;;33.20;21.00;;;;;;5072602;28;20423;-34
2022/05/11 10:50:22;;;;;;;4.40;2.50;;;33.30;21.20;;;;;;5072395;28;20406;-34
2022/05/11 10:52:56;;;;;;;3.30;2.30;;;33.30;20.10;;;;;;5046888;28;20775;-34
2022/05/11 10:55:49;;;;;;;3.07;2.37;;;33.30;21.30;;;;;;5072430;28;20406;-34
2022/05/11 10:58:45;;;;;;;3.23;2.93;;;33.30;20.20;;;;;;5072559;28;20490;-34
2022/05/11 11:01:13;;;;;;;5.23;2.90;;;33.40;19.70;;;;;;5071990;28;20402;-34
2022/05/11 11:04:05;;;;;;;3.47;2.33;;;33.30;19.40;;;;;;5072266;28;20425;-34
2022/05/11 11:09:25;;;;;;;3.23;2.83;;;33.30;19.70;;;;;;5072287;28;20455;-34
2022/05/11 11:12:07;;;;;;;2.90;2.30;;;33.20;19.10;;;;;;5072312;28;20748;-34
2022/05/11 11:14:44;;;;;;;5.30;3.00;;;33.20;20.20;;;;;;5071770;28;20831;-34
2022/05/11 11:17:15;;;;;;;2.43;1.90;;;33.50;20.00;;;;;;5072037;28;20405;-34
2022/05/11 11:19:44;;;;;;;3.70;3.00;;;33.50;19.90;;;;;;5072037;28;20392;-34
2022/05/11 11:22:10;;;;;;;3.97;2.87;;;33.60;19.80;;;;;;5071691;28;20452;-35
2022/05/11 11:24:38;;;;;;;3.70;2.80;;;33.80;20.00;;;;;;5071839;28;20516;-34
2022/05/11 11:27:06;;;;;;;2.90;2.60;;;33.90;19.60;;;;;;5075335;28;20176;-34
2022/05/11 11:29:39;;;;;;;2.57;2.20;;;33.90;19.90;;;;;;5076698;28;20783;-35
2022/05/11 11:32:11;;;;;;;7.37;3.10;;;33.90;19.50;;;;;;5076082;28;20482;-34
2022/05/11 11:34:40;;;;;;;4.80;3.07;;;34.10;20.20;;;;;;5075768;28;20452;-34
2022/05/11 11:37:24;;;;;;;2.60;2.40;;;34.10;19.50;;;;;;5075875;28;20411;-34
2022/05/11 11:39:52;;;;;;;3.93;2.60;;;34.00;18.40;;;;;;5075895;28;20394;-34
2022/05/11 11:42:35;;;;;;;2.70;2.30;;;33.90;18.90;;;;;;5075495;28;20410;-35
2022/05/11 11:45:02;;;;;;;4.47;2.50;;;33.80;18.60;;;;;;5076055;28;20744;-34
2022/05/11 11:47:28;;;;;;;3.47;2.40;;;33.70;19.10;;;;;;5075735;28;20413;-35
2022/05/11 11:49:56;;;;;;;3.00;1.97;;;33.90;18.60;;;;;;5075560;28;20395;-35
2022/05/11 11:52:56;;;;;;;2.80;2.20;;;34.00;18.80;;;;;;5057412;28;20266;-34
2022/05/11 11:55:30;;;;;;;2.40;1.90;;;34.20;18.70;;;;;;5074290;28;20421;-34
2022/05/11 11:58:12;;;;;;;2.57;2.37;;;34.20;18.90;;;;;;5075360;28;20490;-34
2022/05/11 12:00:57;;;;;;;2.60;1.87;;;34.30;18.70;;;;;;5075498;28;20544;-35
2022/05/11 12:03:26;;;;;;;14.73;2.57;;;34.30;18.70;;;;;;5075390;28;20424;-34
2022/05/11 12:17:03;;;;;;;3.10;2.30;;;34.50;18.50;;;;;;5075354;28;20403;-34
2022/05/11 12:19:32;;;;;;;2.47;1.90;;;34.50;18.50;;;;;;5057158;28;20413;-35
2022/05/11 12:22:01;;;;;;;3.30;2.00;;;34.60;18.40;;;;;;5074960;28;20450;-34
2022/05/11 12:24:32;;;;;;;3.53;2.60;;;34.70;17.70;;;;;;5074929;28;20481;-34
2022/05/11 12:27:07;;;;;;;3.93;2.00;;;34.60;17.00;;;;;;5074931;28;20985;-34
2022/05/11 12:32:29;;;;;;;2.70;2.30;;;34.60;18.10;;;;;;5074943;28;20405;-34
2022/05/11 12:34:57;;;;;;;3.87;2.43;;;34.20;17.90;;;;;;5074582;28;20455;-35
2022/05/11 12:37:31;;;;;;;3.90;2.30;;;34.20;18.60;;;;;;5073979;28;20498;-35
2022/05/11 12:40:05;;;;;;;3.37;2.23;;;34.30;18.10;;;;;;5074704;28;20409;-34
2022/05/11 12:42:35;;;;;;;3.20;1.63;;;34.40;17.10;;;;;;5074676;28;20402;-34
2022/05/11 12:45:01;;;;;;;2.53;2.07;;;34.50;17.90;;;;;;5075028;28;20493;-34
2022/05/11 12:47:28;;;;;;;3.00;2.13;;;34.70;17.90;;;;;;5074668;28;20494;-34
2022/05/11 12:49:54;;;;;;;3.20;2.13;;;34.70;17.00;;;;;;5074671;28;20413;-34
2022/05/11 12:52:20;;;;;;;5.20;2.07;;;34.60;17.20;;;;;;5074294;28;20391;-35
2022/05/11 12:54:58;;;;;;;2.90;1.83;;;34.50;16.50;;;;;;5074312;28;20449;-34
2022/05/11 12:57:33;;;;;;;4.70;2.70;;;34.50;17.00;;;;;;5074385;28;20974;-34
2022/05/11 12:59:59;;;;;;;5.20;2.40;;;34.60;17.30;;;;;;5074835;28;20535;-34
2022/05/11 13:02:32;;;;;;;6.40;2.50;;;34.70;17.50;;;;;;5056480;28;20957;-34
2022/05/11 13:05:06;;;;;;;2.97;2.00;;;34.60;16.70;;;;;;5074144;28;20422;-34
2022/05/11 13:07:52;;;;;;;3.27;1.90;;;34.80;17.30;;;;;;5074442;28;20395;-34
2022/05/11 13:10:35;;;;;;;3.33;2.13;;;34.80;16.50;;;;;;5074186;28;20414;-35
2022/05/11 13:13:11;;;;;;;4.00;2.53;;;34.60;17.40;;;;;;5073965;28;20463;-34
2022/05/11 13:15:45;;;;;;;3.60;1.90;;;34.60;17.20;;;;;;5074000;28;21435;-34
2022/05/11 13:18:31;;;;;;;3.80;2.17;;;34.70;16.60;;;;;;5074120;28;20408;-34
2022/05/11 13:21:00;;;;;;;5.87;1.63;;;34.80;17.30;;;;;;5074494;28;20444;-35
2022/05/11 13:23:39;;;;;;;3.03;2.30;;;34.90;17.50;;;;;;5073998;28;20444;-35
2022/05/11 13:26:11;;;;;;;5.33;2.20;;;34.90;16.90;;;;;;5074041;28;20822;-34
2022/05/11 13:28:42;;;;;;;3.00;2.03;;;34.60;16.60;;;;;;5073719;28;20418;-34
2022/05/11 13:31:59;;;;;;;2.50;1.47;;;34.50;17.50;;;;;;5073714;28;20410;-33
2022/05/11 13:34:30;;;;;;;3.47;1.83;;;34.60;17.00;;;;;;5011313;28;20522;-34
2022/05/11 13:36:57;;;;;;;3.70;2.10;;;34.80;16.40;;;;;;5011577;28;20837;-35
2022/05/11 13:39:33;;;;;;;2.13;1.60;;;34.80;17.50;;;;;;5011585;28;20418;-34
2022/05/11 13:42:20;;;;;;;28.77;4.40;;;34.80;17.70;;;;;;5011397;28;20441;-35
2022/05/11 13:44:52;;;;;;;5.57;2.53;;;35.00;17.20;;;;;;5011416;28;20446;-34
2022/05/11 13:50:33;;;;;;;2.80;2.50;;;34.50;17.00;;;;;;5010304;28;20413;-34